sensor_id;sensor_type;location;lat;lon;timestamp;P1;durP1;ratioP1;P2;durP2;ratioP2
47599;SDS011;33323;52.124;6.018;2023-12-20T00:00:36;12.10;;;2.42;;
47599;SDS011;33323;52.124;6.018;2023-12-20T00:03:04;13.32;;;2.17;;
47599;SDS011;33323;52.124;6.018;2023-12-20T00:05:35;6.70;;;2.13;;
47599;SDS011;33323;52.124;6.018;2023-12-20T00:08:26;9.82;;;1.98;;
47599;SDS011;33323;52.124;6.018;2023-12-20T00:10:53;13.18;;;2.80;;
47599;SDS011;33323;52.124;6.018;2023-12-20T00:13:20;18.98;;;2.10;;
47599;SDS011;33323;52.124;6.018;2023-12-20T00:15:48;12.77;;;2.38;;
47599;SDS011;33323;52.124;6.018;2023-12-20T00:18:15;10.48;;;2.22;;
47599;SDS011;33323;52.124;6.018;2023-12-20T00:20:42;10.73;;;2.95;;
47599;SDS011;33323;52.124;6.018;2023-12-20T00:23:09;10.88;;;1.83;;
47599;SDS011;33323;52.124;6.018;2023-12-20T00:25:37;13.05;;;2.65;;
47599;SDS011;33323;52.124;6.018;2023-12-20T00:28:04;16.60;;;2.38;;
47599;SDS011;33323;52.124;6.018;2023-12-20T00:30:32;9.20;;;1.70;;
47599;SDS011;33323;52.124;6.018;2023-12-20T00:33:00;13.05;;;2.70;;
47599;SDS011;33323;52.124;6.018;2023-12-20T00:35:30;14.02;;;2.58;;
47599;SDS011;33323;52.124;6.018;2023-12-20T00:37:58;22.77;;;3.05;;
47599;SDS011;33323;52.124;6.018;2023-12-20T00:40:25;14.32;;;2.95;;
47599;SDS011;33323;52.124;6.018;2023-12-20T00:42:53;10.85;;;2.15;;
47599;SDS011;33323;52.124;6.018;2023-12-20T00:45:20;32.30;;;4.47;;
47599;SDS011;33323;52.124;6.018;2023-12-20T00:47:47;16.02;;;3.00;;
47599;SDS011;33323;52.124;6.018;2023-12-20T00:50:15;11.20;;;2.38;;
47599;SDS011;33323;52.124;6.018;2023-12-20T00:55:52;12.30;;;1.88;;
47599;SDS011;33323;52.124;6.018;2023-12-20T00:58:19;10.60;;;2.95;;
47599;SDS011;33323;52.124;6.018;2023-12-20T01:00:46;10.90;;;1.70;;
47599;SDS011;33323;52.124;6.018;2023-12-20T01:03:13;26.02;;;3.50;;
47599;SDS011;33323;52.124;6.018;2023-12-20T01:05:41;11.02;;;1.88;;
47599;SDS011;33323;52.124;6.018;2023-12-20T01:08:09;13.98;;;3.28;;
47599;SDS011;33323;52.124;6.018;2023-12-20T01:10:36;14.30;;;2.85;;
47599;SDS011;33323;52.124;6.018;2023-12-20T01:13:03;9.65;;;2.72;;
47599;SDS011;33323;52.124;6.018;2023-12-20T01:15:30;15.68;;;2.20;;
47599;SDS011;33323;52.124;6.018;2023-12-20T01:17:57;9.48;;;1.65;;
47599;SDS011;33323;52.124;6.018;2023-12-20T01:20:26;11.55;;;1.58;;
47599;SDS011;33323;52.124;6.018;2023-12-20T01:22:53;11.35;;;2.17;;
47599;SDS011;33323;52.124;6.018;2023-12-20T01:25:20;16.73;;;2.28;;
47599;SDS011;33323;52.124;6.018;2023-12-20T01:28:09;17.98;;;2.70;;
47599;SDS011;33323;52.124;6.018;2023-12-20T01:30:36;17.67;;;3.13;;
47599;SDS011;33323;52.124;6.018;2023-12-20T01:48:54;17.90;;;2.20;;
47599;SDS011;33323;52.124;6.018;2023-12-20T02:43:43;10.45;;;2.45;;
47599;SDS011;33323;52.124;6.018;2023-12-20T03:04:02;18.88;;;3.20;;
47599;SDS011;33323;52.124;6.018;2023-12-20T03:06:29;20.58;;;3.83;;
47599;SDS011;33323;52.124;6.018;2023-12-20T03:08:57;10.63;;;1.90;;
47599;SDS011;33323;52.124;6.018;2023-12-20T03:11:27;15.65;;;3.58;;
47599;SDS011;33323;52.124;6.018;2023-12-20T03:13:56;26.52;;;3.45;;
47599;SDS011;33323;52.124;6.018;2023-12-20T03:16:23;11.10;;;2.67;;
47599;SDS011;33323;52.124;6.018;2023-12-20T04:28:58;19.23;;;4.28;;
47599;SDS011;33323;52.124;6.018;2023-12-20T05:22:22;21.63;;;4.20;;
47599;SDS011;33323;52.124;6.018;2023-12-20T05:52:33;17.85;;;2.83;;
47599;SDS011;33323;52.124;6.018;2023-12-20T06:11:08;17.08;;;3.80;;
47599;SDS011;33323;52.124;6.018;2023-12-20T06:13:36;24.33;;;3.25;;
47599;SDS011;33323;52.124;6.018;2023-12-20T07:03:04;23.42;;;3.78;;
47599;SDS011;33323;52.124;6.018;2023-12-20T07:05:31;26.40;;;7.00;;
47599;SDS011;33323;52.124;6.018;2023-12-20T07:18:42;20.00;;;3.67;;
47599;SDS011;33323;52.124;6.018;2023-12-20T07:21:09;21.25;;;2.85;;
47599;SDS011;33323;52.124;6.018;2023-12-20T07:41:05;25.70;;;3.70;;
47599;SDS011;33323;52.124;6.018;2023-12-20T07:43:32;20.90;;;3.22;;
47599;SDS011;33323;52.124;6.018;2023-12-20T07:46:06;10.90;;;2.50;;
47599;SDS011;33323;52.124;6.018;2023-12-20T08:29:49;11.60;;;2.95;;
47599;SDS011;33323;52.124;6.018;2023-12-20T08:32:18;14.63;;;3.08;;
47599;SDS011;33323;52.124;6.018;2023-12-20T08:35:05;13.20;;;2.78;;
47599;SDS011;33323;52.124;6.018;2023-12-20T08:37:33;11.88;;;2.95;;
47599;SDS011;33323;52.124;6.018;2023-12-20T08:42:49;27.20;;;6.15;;
47599;SDS011;33323;52.124;6.018;2023-12-20T08:45:16;19.95;;;4.07;;
47599;SDS011;33323;52.124;6.018;2023-12-20T08:47:43;14.23;;;3.67;;
47599;SDS011;33323;52.124;6.018;2023-12-20T08:50:12;21.20;;;5.65;;
47599;SDS011;33323;52.124;6.018;2023-12-20T08:53:09;13.85;;;2.80;;
47599;SDS011;33323;52.124;6.018;2023-12-20T08:55:36;20.02;;;3.67;;
47599;SDS011;33323;52.124;6.018;2023-12-20T08:58:04;15.43;;;4.68;;
47599;SDS011;33323;52.124;6.018;2023-12-20T09:19:32;16.13;;;4.10;;
47599;SDS011;33323;52.124;6.018;2023-12-20T09:21:59;18.42;;;3.20;;
47599;SDS011;33323;52.124;6.018;2023-12-20T09:37:08;15.82;;;3.30;;
47599;SDS011;33323;52.124;6.018;2023-12-20T09:45:53;36.83;;;6.35;;
47599;SDS011;33323;52.124;6.018;2023-12-20T09:59:03;18.02;;;4.53;;
47599;SDS011;33323;52.124;6.018;2023-12-20T10:01:31;13.57;;;4.28;;
47599;SDS011;33323;52.124;6.018;2023-12-20T10:04:00;23.20;;;3.30;;
47599;SDS011;33323;52.124;6.018;2023-12-20T10:07:03;20.38;;;3.65;;
47599;SDS011;33323;52.124;6.018;2023-12-20T10:09:35;24.42;;;5.40;;
47599;SDS011;33323;52.124;6.018;2023-12-20T10:12:28;11.70;;;3.10;;
47599;SDS011;33323;52.124;6.018;2023-12-20T10:21:22;18.42;;;4.22;;
47599;SDS011;33323;52.124;6.018;2023-12-20T10:23:54;24.27;;;4.82;;
47599;SDS011;33323;52.124;6.018;2023-12-20T10:26:26;15.40;;;3.45;;
47599;SDS011;33323;52.124;6.018;2023-12-20T10:29:00;20.50;;;5.53;;
47599;SDS011;33323;52.124;6.018;2023-12-20T10:31:33;16.27;;;2.78;;
47599;SDS011;33323;52.124;6.018;2023-12-20T10:34:02;27.85;;;4.88;;
47599;SDS011;33323;52.124;6.018;2023-12-20T10:36:31;23.80;;;3.75;;
47599;SDS011;33323;52.124;6.018;2023-12-20T10:39:01;18.98;;;4.40;;
47599;SDS011;33323;52.124;6.018;2023-12-20T10:41:32;17.35;;;3.67;;
47599;SDS011;33323;52.124;6.018;2023-12-20T10:44:02;22.20;;;3.15;;
47599;SDS011;33323;52.124;6.018;2023-12-20T10:46:34;20.40;;;3.10;;
47599;SDS011;33323;52.124;6.018;2023-12-20T10:49:04;17.05;;;4.00;;
47599;SDS011;33323;52.124;6.018;2023-12-20T10:51:34;18.58;;;3.63;;
47599;SDS011;33323;52.124;6.018;2023-12-20T10:54:03;12.98;;;3.20;;
47599;SDS011;33323;52.124;6.018;2023-12-20T10:56:32;23.25;;;4.30;;
47599;SDS011;33323;52.124;6.018;2023-12-20T10:59:01;18.65;;;4.03;;
47599;SDS011;33323;52.124;6.018;2023-12-20T11:01:31;22.25;;;4.05;;
47599;SDS011;33323;52.124;6.018;2023-12-20T11:03:59;10.80;;;3.47;;
47599;SDS011;33323;52.124;6.018;2023-12-20T11:11:59;11.63;;;3.67;;
47599;SDS011;33323;52.124;6.018;2023-12-20T11:14:50;27.13;;;4.28;;
47599;SDS011;33323;52.124;6.018;2023-12-20T11:17:20;20.35;;;3.75;;
47599;SDS011;33323;52.124;6.018;2023-12-20T11:22:29;18.25;;;3.90;;
47599;SDS011;33323;52.124;6.018;2023-12-20T11:27:42;13.63;;;2.97;;
47599;SDS011;33323;52.124;6.018;2023-12-20T11:30:11;13.73;;;3.15;;
47599;SDS011;33323;52.124;6.018;2023-12-20T11:32:42;16.08;;;2.55;;
47599;SDS011;33323;52.124;6.018;2023-12-20T11:37:40;24.95;;;3.85;;
47599;SDS011;33323;52.124;6.018;2023-12-20T11:40:12;12.57;;;3.47;;
47599;SDS011;33323;52.124;6.018;2023-12-20T11:42:44;16.13;;;3.65;;
47599;SDS011;33323;52.124;6.018;2023-12-20T11:45:17;13.88;;;3.38;;
47599;SDS011;33323;52.124;6.018;2023-12-20T11:47:49;15.25;;;3.25;;
47599;SDS011;33323;52.124;6.018;2023-12-20T11:50:18;15.77;;;2.72;;
47599;SDS011;33323;52.124;6.018;2023-12-20T11:52:47;16.08;;;2.85;;
47599;SDS011;33323;52.124;6.018;2023-12-20T11:55:19;14.80;;;2.92;;
47599;SDS011;33323;52.124;6.018;2023-12-20T11:57:47;20.35;;;2.15;;
47599;SDS011;33323;52.124;6.018;2023-12-20T12:00:15;10.60;;;2.13;;
47599;SDS011;33323;52.124;6.018;2023-12-20T12:02:43;10.88;;;2.15;;
47599;SDS011;33323;52.124;6.018;2023-12-20T12:05:21;10.48;;;2.85;;
47599;SDS011;33323;52.124;6.018;2023-12-20T12:07:49;16.25;;;2.03;;
47599;SDS011;33323;52.124;6.018;2023-12-20T12:10:17;11.80;;;2.05;;
47599;SDS011;33323;52.124;6.018;2023-12-20T12:12:45;21.17;;;3.25;;
47599;SDS011;33323;52.124;6.018;2023-12-20T12:15:14;15.55;;;2.72;;
47599;SDS011;33323;52.124;6.018;2023-12-20T12:17:42;10.90;;;1.73;;
47599;SDS011;33323;52.124;6.018;2023-12-20T12:20:11;10.05;;;1.95;;
47599;SDS011;33323;52.124;6.018;2023-12-20T12:22:39;16.75;;;3.17;;
47599;SDS011;33323;52.124;6.018;2023-12-20T12:25:10;13.15;;;2.25;;
47599;SDS011;33323;52.124;6.018;2023-12-20T12:27:40;13.10;;;2.85;;
47599;SDS011;33323;52.124;6.018;2023-12-20T12:30:09;13.30;;;1.48;;
47599;SDS011;33323;52.124;6.018;2023-12-20T12:32:39;7.65;;;1.60;;
47599;SDS011;33323;52.124;6.018;2023-12-20T12:35:08;12.52;;;2.08;;
47599;SDS011;33323;52.124;6.018;2023-12-20T12:37:37;16.50;;;2.33;;
47599;SDS011;33323;52.124;6.018;2023-12-20T12:40:07;16.10;;;2.50;;
47599;SDS011;33323;52.124;6.018;2023-12-20T12:42:38;11.38;;;2.20;;
47599;SDS011;33323;52.124;6.018;2023-12-20T12:45:07;12.77;;;2.17;;
47599;SDS011;33323;52.124;6.018;2023-12-20T12:47:35;12.68;;;2.85;;
47599;SDS011;33323;52.124;6.018;2023-12-20T12:50:03;10.52;;;2.00;;
47599;SDS011;33323;52.124;6.018;2023-12-20T12:52:32;18.55;;;3.60;;
47599;SDS011;33323;52.124;6.018;2023-12-20T12:54:59;11.63;;;2.45;;
47599;SDS011;33323;52.124;6.018;2023-12-20T12:57:32;13.43;;;2.90;;
47599;SDS011;33323;52.124;6.018;2023-12-20T13:00:01;7.57;;;2.08;;
47599;SDS011;33323;52.124;6.018;2023-12-20T13:02:30;13.90;;;2.00;;
47599;SDS011;33323;52.124;6.018;2023-12-20T13:04:58;11.93;;;3.38;;
47599;SDS011;33323;52.124;6.018;2023-12-20T13:07:28;16.67;;;2.30;;
47599;SDS011;33323;52.124;6.018;2023-12-20T13:09:56;16.08;;;3.17;;
47599;SDS011;33323;52.124;6.018;2023-12-20T13:12:23;16.77;;;2.28;;
47599;SDS011;33323;52.124;6.018;2023-12-20T13:14:51;7.20;;;2.20;;
47599;SDS011;33323;52.124;6.018;2023-12-20T13:17:20;10.95;;;2.22;;
47599;SDS011;33323;52.124;6.018;2023-12-20T13:19:51;9.40;;;2.47;;
47599;SDS011;33323;52.124;6.018;2023-12-20T13:22:19;11.50;;;1.27;;
47599;SDS011;33323;52.124;6.018;2023-12-20T13:24:46;9.32;;;2.33;;
47599;SDS011;33323;52.124;6.018;2023-12-20T13:27:15;7.50;;;1.80;;
47599;SDS011;33323;52.124;6.018;2023-12-20T13:29:43;11.55;;;2.38;;
47599;SDS011;33323;52.124;6.018;2023-12-20T13:32:14;11.77;;;2.50;;
47599;SDS011;33323;52.124;6.018;2023-12-20T13:34:42;11.98;;;2.55;;
47599;SDS011;33323;52.124;6.018;2023-12-20T13:37:10;6.68;;;1.70;;
47599;SDS011;33323;52.124;6.018;2023-12-20T13:39:37;17.73;;;2.63;;
47599;SDS011;33323;52.124;6.018;2023-12-20T13:42:06;13.15;;;1.90;;
47599;SDS011;33323;52.124;6.018;2023-12-20T13:44:34;8.82;;;1.77;;
47599;SDS011;33323;52.124;6.018;2023-12-20T13:47:02;9.88;;;1.80;;
47599;SDS011;33323;52.124;6.018;2023-12-20T13:49:33;14.27;;;2.05;;
47599;SDS011;33323;52.124;6.018;2023-12-20T13:52:02;11.05;;;2.45;;
47599;SDS011;33323;52.124;6.018;2023-12-20T13:54:31;10.98;;;2.60;;
47599;SDS011;33323;52.124;6.018;2023-12-20T13:56:59;8.00;;;1.27;;
47599;SDS011;33323;52.124;6.018;2023-12-20T13:59:42;7.93;;;1.42;;
47599;SDS011;33323;52.124;6.018;2023-12-20T14:02:09;8.55;;;2.10;;
47599;SDS011;33323;52.124;6.018;2023-12-20T14:04:37;11.95;;;2.25;;
47599;SDS011;33323;52.124;6.018;2023-12-20T14:07:10;12.73;;;3.00;;
47599;SDS011;33323;52.124;6.018;2023-12-20T14:09:39;12.40;;;2.55;;
47599;SDS011;33323;52.124;6.018;2023-12-20T14:12:13;10.00;;;3.63;;
47599;SDS011;33323;52.124;6.018;2023-12-20T14:14:45;12.27;;;2.13;;
47599;SDS011;33323;52.124;6.018;2023-12-20T14:17:12;9.50;;;1.65;;
47599;SDS011;33323;52.124;6.018;2023-12-20T14:19:40;17.58;;;2.58;;
47599;SDS011;33323;52.124;6.018;2023-12-20T14:22:08;9.63;;;2.10;;
47599;SDS011;33323;52.124;6.018;2023-12-20T14:24:37;10.63;;;2.35;;
47599;SDS011;33323;52.124;6.018;2023-12-20T14:27:04;14.35;;;2.40;;
47599;SDS011;33323;52.124;6.018;2023-12-20T14:29:32;16.88;;;1.90;;
47599;SDS011;33323;52.124;6.018;2023-12-20T14:32:01;13.73;;;1.83;;
47599;SDS011;33323;52.124;6.018;2023-12-20T14:34:30;16.23;;;2.60;;
47599;SDS011;33323;52.124;6.018;2023-12-20T14:36:58;18.80;;;2.83;;
47599;SDS011;33323;52.124;6.018;2023-12-20T14:39:27;13.90;;;3.03;;
47599;SDS011;33323;52.124;6.018;2023-12-20T14:41:55;7.95;;;2.30;;
47599;SDS011;33323;52.124;6.018;2023-12-20T14:44:23;10.07;;;2.00;;
47599;SDS011;33323;52.124;6.018;2023-12-20T14:46:50;13.50;;;2.63;;
47599;SDS011;33323;52.124;6.018;2023-12-20T14:49:18;17.63;;;3.65;;
47599;SDS011;33323;52.124;6.018;2023-12-20T14:51:45;9.70;;;2.28;;
47599;SDS011;33323;52.124;6.018;2023-12-20T14:54:14;10.77;;;1.95;;
47599;SDS011;33323;52.124;6.018;2023-12-20T14:56:42;11.90;;;2.20;;
47599;SDS011;33323;52.124;6.018;2023-12-20T14:59:10;13.20;;;2.72;;
47599;SDS011;33323;52.124;6.018;2023-12-20T15:01:38;13.13;;;2.80;;
47599;SDS011;33323;52.124;6.018;2023-12-20T15:04:07;14.85;;;3.08;;
47599;SDS011;33323;52.124;6.018;2023-12-20T15:06:36;9.13;;;2.33;;
47599;SDS011;33323;52.124;6.018;2023-12-20T15:09:04;8.65;;;1.73;;
47599;SDS011;33323;52.124;6.018;2023-12-20T15:11:32;14.55;;;3.53;;
47599;SDS011;33323;52.124;6.018;2023-12-20T15:14:00;12.75;;;2.17;;
47599;SDS011;33323;52.124;6.018;2023-12-20T15:16:29;8.48;;;2.25;;
47599;SDS011;33323;52.124;6.018;2023-12-20T15:18:58;19.90;;;2.42;;
47599;SDS011;33323;52.124;6.018;2023-12-20T15:21:25;12.23;;;1.55;;
47599;SDS011;33323;52.124;6.018;2023-12-20T15:23:59;11.75;;;2.20;;
47599;SDS011;33323;52.124;6.018;2023-12-20T15:26:33;11.85;;;2.00;;
47599;SDS011;33323;52.124;6.018;2023-12-20T15:29:03;12.88;;;1.75;;
47599;SDS011;33323;52.124;6.018;2023-12-20T15:31:31;8.70;;;1.40;;
47599;SDS011;33323;52.124;6.018;2023-12-20T15:34:02;6.05;;;2.58;;
47599;SDS011;33323;52.124;6.018;2023-12-20T15:36:30;16.33;;;2.00;;
47599;SDS011;33323;52.124;6.018;2023-12-20T15:38:58;14.40;;;2.30;;
47599;SDS011;33323;52.124;6.018;2023-12-20T15:41:26;17.15;;;1.98;;
47599;SDS011;33323;52.124;6.018;2023-12-20T15:43:53;11.82;;;1.95;;
47599;SDS011;33323;52.124;6.018;2023-12-20T15:46:20;12.18;;;1.70;;
47599;SDS011;33323;52.124;6.018;2023-12-20T15:48:49;7.97;;;1.33;;
47599;SDS011;33323;52.124;6.018;2023-12-20T15:51:19;9.30;;;2.33;;
47599;SDS011;33323;52.124;6.018;2023-12-20T15:53:48;13.18;;;1.90;;
47599;SDS011;33323;52.124;6.018;2023-12-20T15:56:18;10.60;;;1.77;;
47599;SDS011;33323;52.124;6.018;2023-12-20T15:58:46;25.95;;;3.85;;
47599;SDS011;33323;52.124;6.018;2023-12-20T16:01:18;12.15;;;1.35;;
47599;SDS011;33323;52.124;6.018;2023-12-20T16:03:45;11.95;;;2.00;;
47599;SDS011;33323;52.124;6.018;2023-12-20T16:06:24;8.30;;;1.83;;
47599;SDS011;33323;52.124;6.018;2023-12-20T16:08:51;10.57;;;2.38;;
47599;SDS011;33323;52.124;6.018;2023-12-20T16:11:18;16.25;;;2.85;;
47599;SDS011;33323;52.124;6.018;2023-12-20T16:13:45;18.70;;;2.42;;
47599;SDS011;33323;52.124;6.018;2023-12-20T16:16:12;13.63;;;2.22;;
47599;SDS011;33323;52.124;6.018;2023-12-20T16:18:39;9.75;;;1.90;;
47599;SDS011;33323;52.124;6.018;2023-12-20T16:21:06;16.08;;;2.90;;
47599;SDS011;33323;52.124;6.018;2023-12-20T16:23:34;17.98;;;2.40;;
47599;SDS011;33323;52.124;6.018;2023-12-20T16:26:01;9.90;;;2.45;;
47599;SDS011;33323;52.124;6.018;2023-12-20T16:28:28;19.52;;;3.97;;
47599;SDS011;33323;52.124;6.018;2023-12-20T16:30:55;14.48;;;2.47;;
47599;SDS011;33323;52.124;6.018;2023-12-20T16:33:22;14.57;;;3.40;;
47599;SDS011;33323;52.124;6.018;2023-12-20T16:35:50;12.70;;;4.50;;
47599;SDS011;33323;52.124;6.018;2023-12-20T16:38:17;17.80;;;4.07;;
47599;SDS011;33323;52.124;6.018;2023-12-20T16:40:44;20.85;;;3.78;;
47599;SDS011;33323;52.124;6.018;2023-12-20T16:43:12;16.92;;;3.85;;
47599;SDS011;33323;52.124;6.018;2023-12-20T16:45:39;21.20;;;4.55;;
47599;SDS011;33323;52.124;6.018;2023-12-20T16:48:06;20.25;;;4.78;;
47599;SDS011;33323;52.124;6.018;2023-12-20T16:50:33;23.85;;;4.38;;
47599;SDS011;33323;52.124;6.018;2023-12-20T16:53:00;17.42;;;4.50;;
47599;SDS011;33323;52.124;6.018;2023-12-20T16:55:27;12.70;;;3.83;;
47599;SDS011;33323;52.124;6.018;2023-12-20T16:57:55;13.02;;;4.15;;
47599;SDS011;33323;52.124;6.018;2023-12-20T17:00:22;11.82;;;4.72;;
47599;SDS011;33323;52.124;6.018;2023-12-20T17:02:50;22.48;;;5.32;;
47599;SDS011;33323;52.124;6.018;2023-12-20T17:05:17;21.42;;;5.85;;
47599;SDS011;33323;52.124;6.018;2023-12-20T17:07:45;14.70;;;4.47;;
47599;SDS011;33323;52.124;6.018;2023-12-20T17:10:12;20.33;;;4.43;;
47599;SDS011;33323;52.124;6.018;2023-12-20T17:12:40;14.35;;;4.97;;
47599;SDS011;33323;52.124;6.018;2023-12-20T17:15:08;15.55;;;4.55;;
47599;SDS011;33323;52.124;6.018;2023-12-20T17:17:35;25.05;;;5.90;;
47599;SDS011;33323;52.124;6.018;2023-12-20T17:20:02;15.82;;;5.70;;
47599;SDS011;33323;52.124;6.018;2023-12-20T17:22:30;39.17;;;6.28;;
47599;SDS011;33323;52.124;6.018;2023-12-20T17:24:58;14.38;;;5.55;;
47599;SDS011;33323;52.124;6.018;2023-12-20T17:27:25;23.98;;;6.07;;
47599;SDS011;33323;52.124;6.018;2023-12-20T17:29:52;19.95;;;5.22;;
47599;SDS011;33323;52.124;6.018;2023-12-20T17:32:19;20.60;;;5.63;;
47599;SDS011;33323;52.124;6.018;2023-12-20T17:34:46;28.73;;;7.82;;
47599;SDS011;33323;52.124;6.018;2023-12-20T17:37:13;18.05;;;6.13;;
47599;SDS011;33323;52.124;6.018;2023-12-20T17:39:40;20.05;;;6.25;;
47599;SDS011;33323;52.124;6.018;2023-12-20T17:42:08;22.48;;;6.68;;
47599;SDS011;33323;52.124;6.018;2023-12-20T17:44:38;21.48;;;5.60;;
47599;SDS011;33323;52.124;6.018;2023-12-20T17:47:05;18.10;;;7.13;;
47599;SDS011;33323;52.124;6.018;2023-12-20T17:49:32;20.08;;;6.65;;
47599;SDS011;33323;52.124;6.018;2023-12-20T17:52:00;12.63;;;5.55;;
47599;SDS011;33323;52.124;6.018;2023-12-20T17:54:29;18.58;;;5.85;;
47599;SDS011;33323;52.124;6.018;2023-12-20T17:56:56;17.58;;;5.82;;
47599;SDS011;33323;52.124;6.018;2023-12-20T17:59:25;15.93;;;5.05;;
47599;SDS011;33323;52.124;6.018;2023-12-20T18:01:53;15.95;;;4.47;;
47599;SDS011;33323;52.124;6.018;2023-12-20T18:04:21;21.55;;;6.28;;
47599;SDS011;33323;52.124;6.018;2023-12-20T18:06:49;14.18;;;4.82;;
47599;SDS011;33323;52.124;6.018;2023-12-20T18:09:17;19.27;;;6.85;;
47599;SDS011;33323;52.124;6.018;2023-12-20T18:11:44;11.50;;;4.82;;
47599;SDS011;33323;52.124;6.018;2023-12-20T18:14:11;23.58;;;6.50;;
47599;SDS011;33323;52.124;6.018;2023-12-20T18:16:38;12.15;;;5.70;;
47599;SDS011;33323;52.124;6.018;2023-12-20T18:19:06;15.20;;;6.60;;
47599;SDS011;33323;52.124;6.018;2023-12-20T18:21:34;14.00;;;5.80;;
47599;SDS011;33323;52.124;6.018;2023-12-20T18:24:02;10.65;;;5.00;;
47599;SDS011;33323;52.124;6.018;2023-12-20T18:26:36;10.60;;;5.05;;
47599;SDS011;33323;52.124;6.018;2023-12-20T18:29:05;9.90;;;4.90;;
47599;SDS011;33323;52.124;6.018;2023-12-20T18:31:32;15.18;;;4.57;;
47599;SDS011;33323;52.124;6.018;2023-12-20T18:34:00;9.80;;;5.20;;
47599;SDS011;33323;52.124;6.018;2023-12-20T18:36:28;12.35;;;5.32;;
47599;SDS011;33323;52.124;6.018;2023-12-20T18:38:55;12.63;;;5.55;;
47599;SDS011;33323;52.124;6.018;2023-12-20T18:41:23;11.75;;;5.35;;
47599;SDS011;33323;52.124;6.018;2023-12-20T18:43:50;11.82;;;5.20;;
47599;SDS011;33323;52.124;6.018;2023-12-20T18:46:17;14.45;;;5.70;;
47599;SDS011;33323;52.124;6.018;2023-12-20T18:48:44;10.07;;;4.32;;
47599;SDS011;33323;52.124;6.018;2023-12-20T18:51:11;10.18;;;4.38;;
47599;SDS011;33323;52.124;6.018;2023-12-20T18:53:38;7.22;;;4.57;;
47599;SDS011;33323;52.124;6.018;2023-12-20T18:56:05;7.18;;;4.18;;
47599;SDS011;33323;52.124;6.018;2023-12-20T18:58:34;7.88;;;4.40;;
47599;SDS011;33323;52.124;6.018;2023-12-20T19:01:01;8.90;;;4.90;;
47599;SDS011;33323;52.124;6.018;2023-12-20T19:03:30;15.25;;;4.88;;
47599;SDS011;33323;52.124;6.018;2023-12-20T19:05:57;10.65;;;4.40;;
47599;SDS011;33323;52.124;6.018;2023-12-20T19:08:25;8.88;;;4.45;;
47599;SDS011;33323;52.124;6.018;2023-12-20T19:10:52;12.10;;;4.82;;
47599;SDS011;33323;52.124;6.018;2023-12-20T19:13:22;8.85;;;4.38;;
47599;SDS011;33323;52.124;6.018;2023-12-20T19:15:58;10.30;;;4.35;;
47599;SDS011;33323;52.124;6.018;2023-12-20T19:18:26;9.73;;;5.20;;
47599;SDS011;33323;52.124;6.018;2023-12-20T19:20:54;8.70;;;3.58;;
47599;SDS011;33323;52.124;6.018;2023-12-20T19:23:21;9.65;;;3.88;;
47599;SDS011;33323;52.124;6.018;2023-12-20T19:25:48;8.98;;;3.45;;
47599;SDS011;33323;52.124;6.018;2023-12-20T19:28:15;10.73;;;4.20;;
47599;SDS011;33323;52.124;6.018;2023-12-20T19:30:42;10.05;;;4.65;;
47599;SDS011;33323;52.124;6.018;2023-12-20T19:33:09;13.32;;;4.43;;
47599;SDS011;33323;52.124;6.018;2023-12-20T19:35:37;10.05;;;5.95;;
47599;SDS011;33323;52.124;6.018;2023-12-20T19:38:04;13.60;;;6.00;;
47599;SDS011;33323;52.124;6.018;2023-12-20T19:40:31;11.85;;;4.90;;
47599;SDS011;33323;52.124;6.018;2023-12-20T19:42:58;14.07;;;4.65;;
47599;SDS011;33323;52.124;6.018;2023-12-20T19:45:25;11.18;;;5.05;;
47599;SDS011;33323;52.124;6.018;2023-12-20T19:47:52;12.38;;;4.55;;
47599;SDS011;33323;52.124;6.018;2023-12-20T19:50:19;14.70;;;5.22;;
47599;SDS011;33323;52.124;6.018;2023-12-20T19:52:46;11.38;;;4.50;;
47599;SDS011;33323;52.124;6.018;2023-12-20T19:55:14;10.57;;;4.80;;
47599;SDS011;33323;52.124;6.018;2023-12-20T19:57:41;10.93;;;4.03;;
47599;SDS011;33323;52.124;6.018;2023-12-20T20:00:08;10.23;;;4.32;;
47599;SDS011;33323;52.124;6.018;2023-12-20T20:02:38;6.20;;;3.60;;
47599;SDS011;33323;52.124;6.018;2023-12-20T20:05:05;11.52;;;4.40;;
47599;SDS011;33323;52.124;6.018;2023-12-20T20:07:33;10.95;;;4.28;;
47599;SDS011;33323;52.124;6.018;2023-12-20T20:10:01;7.03;;;4.45;;
47599;SDS011;33323;52.124;6.018;2023-12-20T20:12:28;9.85;;;3.95;;
47599;SDS011;33323;52.124;6.018;2023-12-20T20:14:55;15.40;;;5.00;;
47599;SDS011;33323;52.124;6.018;2023-12-20T20:17:22;5.97;;;3.28;;
47599;SDS011;33323;52.124;6.018;2023-12-20T20:19:50;13.00;;;3.92;;
47599;SDS011;33323;52.124;6.018;2023-12-20T20:22:17;8.98;;;3.33;;
47599;SDS011;33323;52.124;6.018;2023-12-20T20:24:45;9.80;;;4.53;;
47599;SDS011;33323;52.124;6.018;2023-12-20T20:27:12;8.00;;;3.38;;
47599;SDS011;33323;52.124;6.018;2023-12-20T20:29:39;12.05;;;4.07;;
47599;SDS011;33323;52.124;6.018;2023-12-20T20:32:06;5.72;;;3.42;;
47599;SDS011;33323;52.124;6.018;2023-12-20T20:34:33;8.57;;;3.80;;
47599;SDS011;33323;52.124;6.018;2023-12-20T20:37:00;8.63;;;3.80;;
47599;SDS011;33323;52.124;6.018;2023-12-20T20:39:28;7.90;;;3.35;;
47599;SDS011;33323;52.124;6.018;2023-12-20T20:41:55;7.05;;;4.05;;
47599;SDS011;33323;52.124;6.018;2023-12-20T20:44:22;7.93;;;3.67;;
47599;SDS011;33323;52.124;6.018;2023-12-20T20:46:50;6.72;;;3.47;;
47599;SDS011;33323;52.124;6.018;2023-12-20T20:49:17;9.07;;;3.63;;
47599;SDS011;33323;52.124;6.018;2023-12-20T20:51:44;9.32;;;3.75;;
47599;SDS011;33323;52.124;6.018;2023-12-20T20:54:11;7.80;;;3.83;;
47599;SDS011;33323;52.124;6.018;2023-12-20T20:56:44;6.07;;;3.88;;
47599;SDS011;33323;52.124;6.018;2023-12-20T20:59:12;4.50;;;3.20;;
47599;SDS011;33323;52.124;6.018;2023-12-20T21:01:40;8.18;;;3.10;;
47599;SDS011;33323;52.124;6.018;2023-12-20T21:04:09;7.90;;;3.75;;
47599;SDS011;33323;52.124;6.018;2023-12-20T21:06:36;4.93;;;3.22;;
47599;SDS011;33323;52.124;6.018;2023-12-20T21:09:04;8.52;;;3.95;;
47599;SDS011;33323;52.124;6.018;2023-12-20T21:11:31;5.93;;;2.70;;
47599;SDS011;33323;52.124;6.018;2023-12-20T21:13:58;5.95;;;3.13;;
47599;SDS011;33323;52.124;6.018;2023-12-20T21:16:25;8.32;;;3.47;;
47599;SDS011;33323;52.124;6.018;2023-12-20T21:18:52;15.88;;;4.32;;
47599;SDS011;33323;52.124;6.018;2023-12-20T21:21:19;5.55;;;3.15;;
47599;SDS011;33323;52.124;6.018;2023-12-20T21:23:47;5.35;;;4.05;;
47599;SDS011;33323;52.124;6.018;2023-12-20T21:26:14;8.30;;;4.60;;
47599;SDS011;33323;52.124;6.018;2023-12-20T21:28:41;6.03;;;4.05;;
47599;SDS011;33323;52.124;6.018;2023-12-20T21:31:08;8.55;;;5.20;;
47599;SDS011;33323;52.124;6.018;2023-12-20T21:33:35;9.77;;;5.22;;
47599;SDS011;33323;52.124;6.018;2023-12-20T21:36:02;8.35;;;3.90;;
47599;SDS011;33323;52.124;6.018;2023-12-20T21:38:30;6.55;;;4.05;;
47599;SDS011;33323;52.124;6.018;2023-12-20T21:40:57;6.60;;;4.20;;
47599;SDS011;33323;52.124;6.018;2023-12-20T21:43:24;7.28;;;4.07;;
47599;SDS011;33323;52.124;6.018;2023-12-20T21:45:51;6.57;;;3.80;;
47599;SDS011;33323;52.124;6.018;2023-12-20T21:48:19;11.32;;;5.90;;
47599;SDS011;33323;52.124;6.018;2023-12-20T21:50:46;9.43;;;3.55;;
47599;SDS011;33323;52.124;6.018;2023-12-20T21:53:13;8.20;;;4.00;;
47599;SDS011;33323;52.124;6.018;2023-12-20T21:55:42;9.25;;;3.72;;
47599;SDS011;33323;52.124;6.018;2023-12-20T21:58:09;8.05;;;3.67;;
47599;SDS011;33323;52.124;6.018;2023-12-20T22:00:36;6.68;;;3.22;;
47599;SDS011;33323;52.124;6.018;2023-12-20T22:03:04;9.43;;;3.85;;
47599;SDS011;33323;52.124;6.018;2023-12-20T22:05:36;7.10;;;3.35;;
47599;SDS011;33323;52.124;6.018;2023-12-20T22:08:04;7.32;;;3.28;;